createdAt,value
2023-05-12T00:01:49.473Z,13.98
2023-05-12T00:04:16.192Z,16.20
2023-05-12T00:06:42.816Z,15.85
2023-05-12T00:09:09.747Z,16.40
2023-05-12T00:11:38.049Z,12.85
2023-05-12T00:14:04.775Z,14.15
2023-05-12T00:16:31.615Z,19.33
2023-05-12T00:18:58.409Z,15.13
2023-05-12T00:21:25.039Z,20.73
2023-05-12T00:23:51.653Z,15.60
2023-05-12T00:26:18.237Z,16.55
2023-05-12T00:28:45.331Z,19.00
2023-05-12T00:31:12.034Z,16.23
2023-05-12T00:33:38.674Z,22.02
2023-05-12T00:36:05.804Z,17.05
2023-05-12T00:38:34.280Z,15.45
2023-05-12T00:41:01.459Z,15.80
2023-05-12T00:43:28.056Z,16.05
2023-05-12T00:45:54.786Z,18.77
2023-05-12T00:48:21.662Z,17.00
2023-05-12T00:50:48.392Z,20.10
2023-05-12T00:53:15.080Z,16.08
2023-05-12T00:55:42.312Z,19.35
2023-05-12T00:58:09.018Z,18.38
2023-05-12T01:00:35.789Z,18.95
2023-05-12T01:03:02.783Z,20.23
2023-05-12T01:05:39.464Z,20.58
2023-05-12T01:08:06.426Z,18.48
2023-05-12T01:10:33.265Z,21.00
2023-05-12T01:12:59.867Z,15.95
2023-05-12T01:15:26.661Z,18.02
2023-05-12T01:17:57.770Z,17.38
2023-05-12T01:20:27.579Z,18.30
2023-05-12T01:22:55.490Z,19.65
2023-05-12T01:25:23.797Z,24.70
2023-05-12T01:27:50.785Z,22.13
2023-05-12T01:30:19.153Z,21.13
2023-05-12T01:32:46.200Z,20.88
2023-05-12T01:35:12.956Z,18.08
2023-05-12T01:37:39.579Z,20.20
2023-05-12T01:40:06.920Z,19.38
2023-05-12T01:42:33.728Z,23.58
2023-05-12T01:45:00.475Z,23.10
2023-05-12T01:47:27.257Z,19.42
2023-05-12T01:49:54.420Z,21.77
2023-05-12T01:52:21.162Z,20.52
2023-05-12T01:54:47.969Z,26.08
2023-05-12T01:57:14.618Z,19.27
2023-05-12T01:59:41.212Z,23.92
2023-05-12T02:02:07.929Z,20.30
2023-05-12T02:04:34.767Z,21.85
2023-05-12T02:07:02.051Z,19.60
2023-05-12T02:09:28.695Z,21.08
2023-05-12T02:11:55.325Z,19.15
2023-05-12T02:14:21.962Z,18.83
2023-05-12T02:16:52.630Z,20.20
2023-05-12T02:19:20.851Z,21.27
2023-05-12T02:21:48.431Z,24.10
2023-05-12T02:24:16.580Z,18.77
2023-05-12T02:26:43.326Z,22.63
2023-05-12T02:29:10.971Z,23.17
2023-05-12T02:31:37.860Z,24.67
2023-05-12T02:34:06.659Z,20.75
2023-05-12T02:36:33.696Z,20.25
2023-05-12T02:39:00.398Z,22.33
2023-05-12T02:41:27.003Z,22.65
2023-05-12T02:43:53.793Z,23.75
2023-05-12T02:46:20.589Z,21.25
2023-05-12T02:48:47.321Z,25.23
2023-05-12T02:51:14.008Z,25.65
2023-05-12T02:53:40.777Z,26.92
2023-05-12T02:56:08.050Z,38.45
2023-05-12T02:58:35.032Z,26.42
2023-05-12T03:01:09.922Z,30.30
2023-05-12T03:03:38.008Z,34.00
2023-05-12T03:06:06.225Z,32.10
2023-05-12T03:08:33.180Z,36.20
2023-05-12T03:10:59.919Z,26.92
2023-05-12T03:13:26.506Z,29.33
2023-05-12T03:15:53.365Z,33.08
2023-05-12T03:18:20.175Z,26.70
2023-05-12T03:20:47.108Z,24.40
2023-05-12T03:23:13.801Z,24.50
2023-05-12T03:25:40.421Z,25.33
2023-05-12T03:28:07.108Z,20.65
2023-05-12T03:30:33.753Z,24.40
2023-05-12T03:33:00.495Z,21.05
2023-05-12T03:35:27.308Z,28.33
2023-05-12T03:37:54.047Z,23.10
2023-05-12T03:40:20.986Z,22.58
2023-05-12T03:42:48.101Z,20.25
2023-05-12T03:45:14.820Z,16.70
2023-05-12T03:47:43.160Z,23.73
2023-05-12T03:50:10.370Z,20.25
2023-05-12T03:52:38.668Z,20.15
2023-05-12T03:55:07.134Z,20.77
2023-05-12T03:57:34.509Z,18.65
2023-05-12T04:00:01.427Z,18.00
2023-05-12T04:02:28.300Z,17.60
2023-05-12T04:04:54.978Z,17.85
2023-05-12T04:07:21.716Z,16.25
2023-05-12T04:09:48.312Z,18.40
2023-05-12T04:12:14.896Z,18.48
2023-05-12T04:14:43.210Z,22.65
2023-05-12T04:17:11.029Z,20.48
2023-05-12T04:19:37.699Z,21.38
2023-05-12T04:22:04.573Z,19.70
2023-05-12T04:24:31.329Z,25.55
2023-05-12T04:26:58.126Z,29.38
2023-05-12T04:29:24.809Z,17.17
2023-05-12T04:31:51.503Z,19.35
2023-05-12T04:34:18.162Z,23.55
2023-05-12T04:36:44.772Z,22.02
2023-05-12T04:39:11.450Z,23.23
2023-05-12T04:41:38.183Z,32.92
2023-05-12T04:44:05.046Z,21.58
2023-05-12T04:46:31.802Z,22.58
2023-05-12T04:48:58.448Z,19.95
2023-05-12T04:51:25.074Z,21.50
2023-05-12T04:53:51.703Z,21.77
2023-05-12T04:56:18.324Z,19.23
2023-05-12T04:58:45.075Z,20.55
2023-05-12T05:01:12.575Z,18.38
2023-05-12T05:03:40.166Z,22.33
2023-05-12T05:06:07.151Z,22.73
2023-05-12T05:08:33.802Z,22.63
2023-05-12T05:11:00.476Z,22.65
2023-05-12T05:13:27.100Z,19.73
2023-05-12T05:15:55.729Z,31.50
2023-05-12T05:18:24.208Z,27.45
2023-05-12T05:20:57.767Z,23.67
2023-05-12T05:23:24.858Z,22.45
2023-05-12T05:25:51.615Z,23.92
2023-05-12T05:28:18.211Z,21.73
2023-05-12T05:30:44.935Z,20.10
2023-05-12T05:33:13.244Z,18.90
2023-05-12T05:35:40.307Z,22.20
2023-05-12T05:38:06.961Z,20.73
2023-05-12T05:40:44.955Z,22.40
2023-05-12T05:43:18.890Z,24.92
2023-05-12T05:45:45.814Z,27.55
2023-05-12T05:48:12.504Z,20.77
2023-05-12T05:50:39.278Z,24.45
2023-05-12T05:53:06.723Z,22.80
2023-05-12T05:55:33.411Z,22.27
2023-05-12T05:58:00.182Z,25.08
2023-05-12T06:00:26.898Z,21.50
2023-05-12T06:02:53.672Z,21.02
2023-05-12T06:05:20.746Z,22.90
2023-05-12T06:07:47.633Z,16.65
2023-05-12T06:10:14.281Z,19.17
2023-05-12T06:12:41.488Z,18.42
2023-05-12T06:15:08.668Z,16.33
2023-05-12T06:17:35.510Z,16.30
2023-05-12T06:20:03.026Z,16.42
2023-05-12T06:22:29.653Z,15.93
2023-05-12T06:24:56.472Z,15.60
2023-05-12T06:27:23.477Z,16.30
2023-05-12T06:29:51.968Z,13.80
2023-05-12T06:32:19.219Z,15.57
2023-05-12T06:34:45.938Z,14.93
2023-05-12T06:37:12.575Z,20.63
2023-05-12T06:39:39.210Z,17.02
2023-05-12T06:42:06.199Z,16.98
2023-05-12T06:44:32.879Z,14.18
2023-05-12T06:46:59.534Z,18.83
2023-05-12T06:49:26.222Z,11.90
2023-05-12T06:51:56.506Z,13.82
2023-05-12T06:54:23.676Z,16.73
2023-05-12T06:56:50.551Z,14.07
2023-05-12T06:59:25.611Z,12.68
2023-05-12T07:01:52.787Z,15.35
2023-05-12T07:04:19.560Z,15.95
2023-05-12T07:06:46.175Z,17.75
2023-05-12T07:09:14.166Z,16.33
2023-05-12T07:11:40.902Z,13.30
2023-05-12T07:14:07.532Z,15.68
2023-05-12T07:16:34.305Z,17.55
2023-05-12T07:19:01.128Z,17.77
2023-05-12T07:21:29.668Z,17.02
2023-05-12T07:23:56.636Z,21.45
2023-05-12T07:26:24.425Z,17.25
2023-05-12T07:28:51.157Z,17.45
2023-05-12T07:31:17.773Z,16.13
2023-05-12T07:33:44.478Z,15.48
2023-05-12T07:36:11.111Z,11.88
2023-05-12T07:38:37.751Z,17.33
2023-05-12T07:41:04.707Z,10.93
2023-05-12T07:43:31.342Z,12.10
2023-05-12T07:45:59.323Z,14.18
2023-05-12T07:48:26.026Z,15.10
2023-05-12T07:50:52.659Z,16.60
2023-05-12T07:53:19.418Z,11.98
2023-05-12T07:55:46.050Z,17.63
2023-05-12T07:58:12.977Z,17.77
2023-05-12T08:00:40.546Z,14.38
2023-05-12T08:03:07.912Z,14.98
2023-05-12T08:05:34.804Z,13.40
2023-05-12T08:08:01.585Z,15.10
2023-05-12T08:10:29.967Z,13.90
2023-05-12T08:12:56.792Z,16.23
2023-05-12T08:15:26.006Z,19.70
2023-05-12T08:17:52.727Z,17.30
2023-05-12T08:20:19.504Z,14.90
2023-05-12T08:22:47.937Z,15.13
2023-05-12T08:25:14.805Z,16.60
2023-05-12T08:27:41.605Z,14.57
2023-05-12T08:30:09.722Z,19.80
2023-05-12T08:32:36.791Z,18.75
2023-05-12T08:35:03.925Z,15.25
2023-05-12T08:37:33.644Z,13.75
2023-05-12T08:40:01.040Z,14.27
2023-05-12T08:42:55.999Z,14.43
2023-05-12T08:45:23.902Z,20.13
2023-05-12T08:47:51.696Z,14.50
2023-05-12T08:50:22.212Z,16.20
2023-05-12T08:52:49.873Z,16.25
2023-05-12T08:55:18.455Z,15.68
2023-05-12T08:57:48.405Z,14.57
2023-05-12T09:00:16.504Z,16.05
2023-05-12T09:02:53.241Z,15.55
2023-05-12T09:05:21.344Z,13.68
2023-05-12T09:07:49.978Z,12.45
2023-05-12T09:10:32.906Z,13.85
2023-05-12T09:13:17.485Z,12.32
2023-05-12T09:15:47.060Z,9.75
2023-05-12T09:18:13.750Z,11.68
2023-05-12T09:20:40.463Z,11.23
2023-05-12T09:23:21.132Z,10.82
2023-05-12T09:26:00.890Z,10.45
2023-05-12T09:28:39.789Z,8.23
2023-05-12T09:31:19.034Z,7.90
2023-05-12T09:33:45.708Z,7.47
2023-05-12T09:36:20.823Z,8.88
2023-05-12T09:38:58.300Z,6.20
2023-05-12T09:41:25.561Z,7.90
2023-05-12T09:43:55.388Z,10.65
2023-05-12T09:46:22.283Z,7.20
2023-05-12T09:48:49.165Z,7.13
2023-05-12T09:51:18.788Z,8.63
2023-05-12T09:53:46.903Z,16.23
2023-05-12T09:56:14.724Z,7.40
2023-05-12T09:58:46.517Z,10.10
2023-05-12T10:01:22.922Z,8.43
2023-05-12T10:03:56.417Z,8.55
2023-05-12T10:06:37.422Z,7.10
2023-05-12T10:09:31.541Z,6.68
2023-05-12T10:11:59.187Z,11.38
2023-05-12T10:14:26.044Z,6.50
2023-05-12T10:16:54.027Z,5.68
2023-05-12T10:19:21.564Z,4.20
2023-05-12T10:21:49.655Z,8.32
2023-05-12T10:24:17.301Z,8.43
2023-05-12T10:26:44.774Z,9.20
2023-05-12T10:29:12.905Z,8.23
2023-05-12T10:31:40.488Z,10.27
2023-05-12T10:34:07.494Z,7.10
2023-05-12T10:36:48.162Z,6.38
2023-05-12T10:39:17.789Z,6.13
2023-05-12T10:41:44.468Z,6.28
2023-05-12T10:44:12.298Z,7.30
2023-05-12T10:46:39.069Z,4.70
2023-05-12T10:49:10.551Z,7.15
2023-05-12T10:51:43.211Z,6.85
2023-05-12T10:54:12.988Z,4.70
2023-05-12T10:56:40.054Z,4.40
2023-05-12T10:59:22.829Z,3.70
2023-05-12T11:01:58.962Z,5.22
2023-05-12T11:04:48.270Z,5.15
2023-05-12T11:07:17.826Z,4.80
2023-05-12T11:09:57.640Z,4.03
2023-05-12T11:12:28.676Z,5.60
2023-05-12T11:14:55.418Z,4.90
2023-05-12T11:17:22.330Z,4.03
2023-05-12T11:19:50.619Z,5.82
2023-05-12T11:22:20.139Z,4.57
2023-05-12T11:24:47.924Z,5.30
2023-05-12T11:27:16.418Z,5.18
2023-05-12T11:29:45.083Z,3.90
2023-05-12T11:32:14.834Z,4.75
2023-05-12T11:34:41.948Z,2.97
2023-05-12T11:37:09.197Z,5.03
2023-05-12T11:40:23.622Z,4.75
2023-05-12T11:46:26.586Z,3.47
2023-05-12T11:49:00.308Z,4.97
2023-05-12T11:51:27.952Z,3.38
2023-05-12T11:53:56.280Z,3.45
2023-05-12T11:56:24.531Z,4.03
2023-05-12T11:58:56.520Z,4.55
2023-05-12T12:01:25.027Z,3.92
2023-05-12T12:03:55.755Z,5.15
2023-05-12T12:06:23.116Z,5.55
2023-05-12T12:09:00.304Z,6.75
2023-05-12T12:11:28.389Z,4.30
2023-05-12T12:14:00.164Z,4.93
2023-05-12T12:16:28.538Z,5.78
2023-05-12T12:18:56.083Z,3.80
2023-05-12T12:21:24.733Z,3.22
2023-05-12T12:23:52.670Z,3.75
2023-05-12T12:26:23.319Z,4.35
2023-05-12T12:28:50.105Z,4.55
2023-05-12T12:31:18.912Z,3.22
2023-05-12T12:33:45.636Z,5.63
2023-05-12T12:36:14.636Z,4.25
2023-05-12T12:38:41.891Z,4.00
2023-05-12T12:41:08.690Z,5.85
2023-05-12T12:43:36.881Z,5.47
2023-05-12T12:46:03.934Z,3.25
2023-05-12T12:48:32.170Z,5.95
2023-05-12T12:50:59.047Z,4.20
2023-05-12T12:53:25.672Z,4.80
2023-05-12T12:55:52.563Z,4.97
2023-05-12T12:58:21.285Z,6.57
2023-05-12T13:00:48.435Z,2.58
2023-05-12T13:03:17.058Z,3.58
2023-05-12T13:05:44.878Z,2.05
2023-05-12T13:08:13.498Z,2.85
2023-05-12T13:10:42.126Z,5.03
2023-05-12T13:13:11.923Z,5.13
2023-05-12T13:15:42.330Z,3.60
2023-05-12T13:18:08.971Z,3.55
2023-05-12T13:20:36.417Z,3.33
2023-05-12T13:23:03.743Z,4.20
2023-05-12T13:25:32.419Z,3.15
2023-05-12T13:27:59.307Z,6.43
2023-05-12T13:30:26.723Z,2.90
2023-05-12T13:32:53.832Z,4.38
2023-05-12T13:35:23.549Z,6.20
2023-05-12T13:37:50.666Z,3.92
2023-05-12T13:40:17.351Z,3.92
2023-05-12T13:42:44.465Z,5.28
2023-05-12T13:45:11.647Z,3.35
2023-05-12T13:47:38.485Z,3.78
2023-05-12T13:50:08.178Z,4.38
2023-05-12T13:52:36.144Z,3.03
2023-05-12T13:55:03.242Z,4.40
2023-05-12T13:57:29.981Z,2.45
2023-05-12T13:59:58.747Z,3.03
2023-05-12T14:02:25.520Z,2.90
2023-05-12T14:04:52.443Z,4.53
2023-05-12T14:07:19.436Z,3.83
2023-05-12T14:09:46.208Z,4.35
2023-05-12T14:12:12.953Z,4.90
2023-05-12T14:14:39.733Z,3.00
2023-05-12T14:17:07.904Z,3.78
2023-05-12T14:19:36.004Z,2.28
2023-05-12T14:22:05.848Z,3.30
2023-05-12T14:24:36.637Z,4.75
2023-05-12T14:27:03.704Z,5.35
2023-05-12T14:29:35.942Z,3.83
2023-05-12T14:32:04.688Z,3.78
2023-05-12T14:34:31.791Z,4.60
2023-05-12T14:36:58.880Z,4.43
2023-05-12T14:39:25.559Z,5.93
2023-05-12T14:41:52.230Z,11.82
2023-05-12T14:44:19.523Z,5.88
2023-05-12T14:46:48.903Z,3.20
2023-05-12T14:49:18.629Z,5.78
2023-05-12T14:51:45.436Z,2.90
2023-05-12T14:54:24.834Z,4.03
2023-05-12T14:56:57.106Z,4.55
2023-05-12T14:59:24.938Z,3.63
2023-05-12T15:01:52.058Z,5.30
2023-05-12T15:04:18.690Z,4.10
2023-05-12T15:06:45.501Z,3.65
2023-05-12T15:09:12.314Z,3.95
2023-05-12T15:11:39.723Z,3.00
2023-05-12T15:14:06.322Z,6.10
2023-05-12T15:16:33.294Z,3.85
2023-05-12T15:19:00.055Z,5.00
2023-05-12T15:21:26.781Z,12.32
2023-05-12T15:23:53.396Z,6.28
2023-05-12T15:26:33.040Z,4.53
2023-05-12T15:29:00.716Z,5.05
2023-05-12T15:31:31.061Z,5.22
2023-05-12T15:33:57.972Z,4.15
2023-05-12T15:36:24.612Z,4.47
2023-05-12T15:38:51.250Z,4.72
2023-05-12T15:41:17.904Z,5.03
2023-05-12T15:43:44.541Z,5.40
2023-05-12T15:46:11.741Z,4.63
2023-05-12T15:48:39.397Z,6.63
2023-05-12T15:51:06.928Z,5.72
2023-05-12T15:53:33.858Z,5.15
2023-05-12T15:56:04.869Z,4.35
2023-05-12T15:58:31.996Z,3.60
2023-05-12T16:00:59.479Z,6.25
2023-05-12T16:03:26.425Z,4.70
2023-05-12T16:05:53.325Z,4.15
2023-05-12T16:08:20.448Z,3.55
2023-05-12T16:10:47.237Z,3.65
2023-05-12T16:13:14.535Z,4.35
2023-05-12T16:15:41.337Z,3.78
2023-05-12T16:18:10.890Z,4.93
2023-05-12T16:20:38.908Z,7.32
2023-05-12T16:23:05.647Z,4.65
2023-05-12T16:25:32.290Z,3.97
2023-05-12T16:27:59.031Z,3.70
2023-05-12T16:30:26.431Z,3.78
2023-05-12T16:32:53.341Z,3.10
2023-05-12T16:35:20.937Z,3.58
2023-05-12T16:37:48.050Z,3.97
2023-05-12T16:40:15.343Z,2.42
2023-05-12T16:42:42.743Z,3.88
2023-05-12T16:45:11.396Z,3.47
2023-05-12T16:47:38.951Z,4.80
2023-05-12T16:50:06.322Z,5.93
2023-05-12T16:52:34.391Z,4.05
2023-05-12T16:55:03.010Z,3.40
2023-05-12T16:57:32.308Z,4.40
2023-05-12T17:00:02.244Z,5.18
2023-05-12T17:02:30.959Z,7.57
2023-05-12T17:04:57.751Z,4.57
2023-05-12T17:07:24.756Z,8.25
2023-05-12T17:09:51.878Z,5.43
2023-05-12T17:12:19.749Z,5.95
2023-05-12T17:14:53.159Z,8.10
2023-05-12T17:17:30.855Z,7.40
2023-05-12T17:19:58.991Z,6.57
2023-05-12T17:22:27.127Z,6.53
2023-05-12T17:24:53.834Z,6.55
2023-05-12T17:27:20.536Z,7.93
2023-05-12T17:29:49.729Z,5.00
2023-05-12T17:32:17.081Z,9.60
2023-05-12T17:34:45.049Z,4.95
2023-05-12T17:37:11.939Z,6.30
2023-05-12T17:39:40.623Z,7.88
2023-05-12T17:42:07.512Z,7.00
2023-05-12T17:44:34.179Z,5.40
2023-05-12T17:47:04.601Z,6.22
2023-05-12T17:49:31.844Z,6.38
2023-05-12T17:51:58.566Z,6.25
2023-05-12T17:54:25.401Z,5.10
2023-05-12T17:56:53.069Z,7.05
2023-05-12T17:59:19.815Z,5.05
2023-05-12T18:01:46.481Z,7.63
2023-05-12T18:04:13.830Z,7.22
2023-05-12T18:06:41.656Z,7.65
2023-05-12T18:09:08.941Z,11.18
2023-05-12T18:11:35.755Z,8.23
2023-05-12T18:14:06.316Z,10.45
2023-05-12T18:16:33.625Z,8.27
2023-05-12T18:19:03.534Z,7.25
2023-05-12T18:21:30.204Z,9.13
2023-05-12T18:23:56.804Z,6.70
2023-05-12T18:26:23.720Z,9.50
2023-05-12T18:28:50.427Z,5.95
2023-05-12T18:31:19.534Z,6.50
2023-05-12T18:33:47.996Z,5.28
2023-05-12T18:36:16.845Z,6.50
2023-05-12T18:38:43.834Z,7.65
2023-05-12T18:41:12.573Z,5.82
2023-05-12T18:43:40.471Z,8.45
2023-05-12T18:46:07.349Z,4.85
2023-05-12T18:48:34.051Z,4.50
2023-05-12T18:51:01.223Z,9.35
2023-05-12T18:53:28.093Z,7.25
2023-05-12T18:55:55.114Z,6.38
2023-05-12T18:58:21.763Z,4.63
2023-05-12T19:00:48.761Z,8.15
2023-05-12T19:03:16.501Z,5.82
2023-05-12T19:05:46.353Z,3.88
2023-05-12T19:08:13.111Z,5.18
2023-05-12T19:10:40.196Z,6.85
2023-05-12T19:13:07.498Z,7.22
2023-05-12T19:15:34.367Z,5.25
2023-05-12T19:18:01.149Z,7.88
2023-05-12T19:20:29.132Z,7.65
2023-05-12T19:22:55.974Z,5.30
2023-05-12T19:25:23.069Z,5.38
2023-05-12T19:27:51.415Z,5.95
2023-05-12T19:30:20.494Z,5.43
2023-05-12T19:32:47.447Z,7.18
2023-05-12T19:35:15.288Z,6.13
2023-05-12T19:37:42.172Z,5.38
2023-05-12T19:40:11.707Z,5.28
2023-05-12T19:42:38.889Z,7.03
2023-05-12T19:45:06.187Z,5.13
2023-05-12T19:47:33.690Z,5.53
2023-05-12T19:50:00.679Z,6.28
2023-05-12T19:52:30.670Z,7.97
2023-05-12T19:54:57.990Z,9.70
2023-05-12T19:57:25.551Z,6.93
2023-05-12T19:59:52.312Z,5.80
2023-05-12T20:02:19.004Z,10.75
2023-05-12T20:04:46.549Z,8.05
2023-05-12T20:07:13.309Z,8.68
2023-05-12T20:09:40.189Z,7.38
2023-05-12T20:12:08.078Z,9.02
2023-05-12T20:14:38.438Z,7.32
2023-05-12T20:17:07.222Z,7.75
2023-05-12T20:19:33.960Z,6.63
2023-05-12T20:22:01.113Z,6.03
2023-05-12T20:24:27.932Z,6.63
2023-05-12T20:26:54.894Z,7.60
2023-05-12T20:29:22.327Z,8.02
2023-05-12T20:31:50.901Z,7.50
2023-05-12T20:34:18.947Z,7.90
2023-05-12T20:36:46.529Z,9.32
2023-05-12T20:39:14.229Z,12.35
2023-05-12T20:41:44.121Z,8.80
2023-05-12T20:44:10.991Z,7.07
2023-05-12T20:46:44.504Z,8.02
2023-05-12T20:49:14.036Z,7.65
2023-05-12T20:51:40.624Z,9.32
2023-05-12T20:54:07.263Z,8.48
2023-05-12T20:56:37.064Z,7.50
2023-05-12T20:59:04.355Z,6.50
2023-05-12T21:01:35.077Z,11.80
2023-05-12T21:04:01.927Z,7.32
2023-05-12T21:06:28.753Z,7.85
2023-05-12T21:08:55.510Z,9.77
2023-05-12T21:11:22.394Z,8.40
2023-05-12T21:13:50.120Z,7.78
2023-05-12T21:16:16.996Z,6.72
2023-05-12T21:18:43.839Z,7.85
2023-05-12T21:21:14.912Z,7.78
2023-05-12T21:23:42.009Z,7.93
2023-05-12T21:26:10.450Z,6.63
2023-05-12T21:28:37.569Z,8.82
2023-05-12T21:31:04.657Z,7.93
2023-05-12T21:33:43.402Z,5.93
2023-05-12T21:36:13.663Z,5.30
2023-05-12T21:38:40.683Z,7.97
2023-05-12T21:41:07.345Z,5.55
2023-05-12T21:43:34.092Z,5.95
2023-05-12T21:46:05.501Z,9.00
2023-05-12T21:48:33.333Z,6.78
2023-05-12T21:51:01.603Z,6.20
2023-05-12T21:53:29.232Z,6.15
2023-05-12T21:55:56.053Z,4.38
2023-05-12T21:58:23.931Z,5.13
2023-05-12T22:00:51.370Z,7.05
2023-05-12T22:03:20.409Z,6.28
2023-05-12T22:05:48.313Z,8.35
2023-05-12T22:08:16.414Z,5.15
2023-05-12T22:10:43.510Z,9.70
2023-05-12T22:13:10.756Z,7.53
2023-05-12T22:15:37.727Z,7.63
2023-05-12T22:18:04.785Z,8.02
2023-05-12T22:20:32.034Z,7.05
2023-05-12T22:23:02.157Z,7.68
2023-05-12T22:25:29.042Z,8.07
2023-05-12T22:27:55.927Z,7.20
2023-05-12T22:30:22.991Z,10.93
2023-05-12T22:32:50.069Z,7.13
2023-05-12T22:35:17.090Z,6.55
2023-05-12T22:37:43.970Z,10.25
2023-05-12T22:40:10.897Z,7.30
2023-05-12T22:42:37.666Z,9.43
2023-05-12T22:45:05.162Z,6.35
2023-05-12T22:47:32.420Z,9.57
2023-05-12T22:49:59.494Z,6.53
2023-05-12T22:52:26.315Z,9.25
2023-05-12T22:54:53.935Z,7.82
2023-05-12T22:57:24.292Z,7.18
2023-05-12T22:59:51.134Z,8.45
2023-05-12T23:02:17.851Z,9.52
2023-05-12T23:04:44.522Z,12.15
2023-05-12T23:07:11.505Z,6.78
2023-05-12T23:09:38.152Z,11.25
2023-05-12T23:12:05.607Z,8.65
2023-05-12T23:14:32.311Z,7.45
2023-05-12T23:16:59.011Z,6.32
2023-05-12T23:19:25.751Z,8.93
2023-05-12T23:21:52.404Z,7.82
2023-05-12T23:24:19.065Z,6.53
2023-05-12T23:26:45.841Z,8.77
2023-05-12T23:29:12.609Z,12.07
2023-05-12T23:31:39.377Z,7.38
2023-05-12T23:34:06.086Z,7.35
2023-05-12T23:36:32.759Z,11.77
2023-05-12T23:38:59.540Z,7.50
2023-05-12T23:41:26.217Z,7.28
2023-05-12T23:43:52.881Z,7.25
2023-05-12T23:46:19.589Z,5.45
2023-05-12T23:48:46.239Z,7.15
2023-05-12T23:51:12.982Z,6.22
2023-05-12T23:53:39.617Z,5.82
2023-05-12T23:56:06.731Z,7.53
2023-05-12T23:58:34.163Z,7.07
